createdAt,value
2018-08-06T00:00:54.772Z,1.20
2018-08-06T00:03:23.347Z,1.30
2018-08-06T00:05:51.828Z,1.67
2018-08-06T00:08:20.344Z,1.60
2018-08-06T00:10:48.873Z,1.60
2018-08-06T00:13:17.387Z,1.50
2018-08-06T00:15:45.880Z,1.40
2018-08-06T00:18:14.497Z,1.40
2018-08-06T00:20:42.990Z,1.23
2018-08-06T00:23:11.517Z,1.40
2018-08-06T00:25:40.044Z,1.70
2018-08-06T00:28:08.609Z,1.30
2018-08-06T00:30:37.172Z,1.47
2018-08-06T00:33:05.799Z,1.60
2018-08-06T00:35:34.433Z,1.63
2018-08-06T00:38:02.939Z,1.67
2018-08-06T00:40:31.485Z,1.73
2018-08-06T00:43:00.222Z,1.60
2018-08-06T00:45:28.812Z,1.83
2018-08-06T00:47:57.318Z,1.80
2018-08-06T00:50:25.825Z,1.60
2018-08-06T00:52:54.394Z,1.70
2018-08-06T00:55:22.893Z,1.80
2018-08-06T00:57:51.454Z,1.53
2018-08-06T01:00:20.635Z,1.72
2018-08-06T01:02:49.173Z,1.60
2018-08-06T01:05:18.007Z,1.77
2018-08-06T01:07:46.629Z,1.90
2018-08-06T01:10:15.726Z,1.90
2018-08-06T01:12:44.258Z,1.97
2018-08-06T01:15:13.706Z,1.83
2018-08-06T01:17:42.332Z,2.00
2018-08-06T01:20:12.021Z,1.93
2018-08-06T01:22:41.400Z,2.10
2018-08-06T01:25:09.939Z,2.40
2018-08-06T01:27:38.464Z,1.90
2018-08-06T01:30:07.896Z,2.03
2018-08-06T01:32:36.860Z,2.50
2018-08-06T01:35:05.664Z,2.20
2018-08-06T01:37:34.230Z,1.87
2018-08-06T01:40:04.195Z,2.63
2018-08-06T01:42:32.718Z,2.00
2018-08-06T01:45:01.222Z,2.43
2018-08-06T01:47:29.755Z,2.20
2018-08-06T01:49:58.319Z,2.20
2018-08-06T01:52:26.914Z,2.20
2018-08-06T01:54:55.453Z,2.30
2018-08-06T01:57:23.984Z,2.07
2018-08-06T01:59:52.489Z,2.50
2018-08-06T02:02:21.051Z,2.57
2018-08-06T02:04:49.538Z,2.37
2018-08-06T02:07:18.063Z,2.57
2018-08-06T02:09:47.250Z,2.80
2018-08-06T02:12:16.764Z,2.70
2018-08-06T02:14:45.320Z,2.50
2018-08-06T02:17:13.868Z,2.17
2018-08-06T02:19:42.378Z,2.70
2018-08-06T02:22:11.079Z,3.40
2018-08-06T02:24:39.682Z,3.13
2018-08-06T02:27:08.194Z,2.93
2018-08-06T02:29:36.762Z,2.60
2018-08-06T02:32:05.295Z,3.10
2018-08-06T02:34:33.855Z,2.53
2018-08-06T02:37:02.856Z,2.60
2018-08-06T02:39:31.362Z,3.20
2018-08-06T02:41:59.948Z,2.90
2018-08-06T02:44:28.557Z,3.53
2018-08-06T02:46:57.131Z,3.20
2018-08-06T02:49:25.721Z,3.37
2018-08-06T02:51:54.264Z,2.67
2018-08-06T02:54:22.772Z,2.53
2018-08-06T02:56:51.317Z,2.60
2018-08-06T02:59:19.825Z,2.83
2018-08-06T03:01:48.374Z,2.50
2018-08-06T03:04:16.893Z,3.30
2018-08-06T03:06:45.469Z,3.07
2018-08-06T03:09:13.995Z,2.53
2018-08-06T03:11:42.498Z,2.80
2018-08-06T03:14:11.017Z,3.20
2018-08-06T03:16:39.648Z,2.93
2018-08-06T03:19:08.245Z,2.93
2018-08-06T03:21:36.914Z,2.40
2018-08-06T03:24:05.471Z,3.40
2018-08-06T03:26:34.032Z,2.80
2018-08-06T03:29:02.568Z,3.93
2018-08-06T03:31:31.067Z,2.70
2018-08-06T03:33:59.574Z,2.63
2018-08-06T03:36:28.097Z,2.90
2018-08-06T03:38:56.620Z,3.03
2018-08-06T03:41:25.140Z,3.23
2018-08-06T03:43:53.666Z,2.60
2018-08-06T03:46:22.188Z,2.90
2018-08-06T03:48:50.735Z,3.70
2018-08-06T03:51:19.251Z,2.90
2018-08-06T03:53:47.751Z,3.13
2018-08-06T03:56:19.467Z,2.73
2018-08-06T03:58:48.363Z,2.80
2018-08-06T04:01:16.894Z,2.73
2018-08-06T04:03:45.449Z,2.77
2018-08-06T04:06:14.016Z,2.90
2018-08-06T04:08:42.623Z,2.70
2018-08-06T04:11:11.138Z,4.30
2018-08-06T04:13:39.716Z,2.77
2018-08-06T04:16:08.136Z,2.83
2018-08-06T04:18:37.000Z,2.97
2018-08-06T04:21:05.541Z,3.60
2018-08-06T04:23:34.079Z,6.17
2018-08-06T04:26:02.616Z,3.63
2018-08-06T04:28:31.171Z,3.10
2018-08-06T04:30:59.936Z,3.20
2018-08-06T04:33:28.367Z,3.93
2018-08-06T04:35:56.971Z,3.53
2018-08-06T04:38:25.531Z,2.80
2018-08-06T04:40:54.051Z,3.37
2018-08-06T04:43:22.535Z,5.17
2018-08-06T04:45:51.050Z,5.67
2018-08-06T04:48:19.552Z,3.17
2018-08-06T04:50:48.144Z,4.07
2018-08-06T04:53:16.645Z,2.90
2018-08-06T04:55:45.179Z,3.13
2018-08-06T04:58:13.696Z,5.43
2018-08-06T05:00:42.221Z,2.77
2018-08-06T05:03:10.725Z,3.50
2018-08-06T05:05:39.258Z,4.73
2018-08-06T05:08:07.756Z,3.30
2018-08-06T05:10:36.351Z,4.67
2018-08-06T05:13:04.852Z,3.33
2018-08-06T05:15:33.397Z,4.20
2018-08-06T05:18:01.912Z,3.47
2018-08-06T05:20:30.418Z,3.27
2018-08-06T05:22:58.918Z,2.90
2018-08-06T05:25:27.432Z,3.10
2018-08-06T05:27:56.030Z,4.07
2018-08-06T05:30:24.933Z,4.53
2018-08-06T05:32:53.835Z,3.33
2018-08-06T05:35:22.717Z,3.80
2018-08-06T05:37:51.693Z,2.43
2018-08-06T05:40:20.621Z,2.70
2018-08-06T05:42:49.501Z,2.40
2018-08-06T05:45:18.576Z,2.90
2018-08-06T05:47:47.385Z,3.27
2018-08-06T05:50:16.270Z,3.20
2018-08-06T05:52:45.475Z,2.17
2018-08-06T05:55:14.314Z,2.30
2018-08-06T05:57:43.178Z,2.80
2018-08-06T06:00:16.526Z,2.17
2018-08-06T06:02:46.130Z,2.20
2018-08-06T06:05:15.051Z,2.05
2018-08-06T06:07:43.926Z,3.20
2018-08-06T06:10:15.155Z,2.37
2018-08-06T06:12:44.012Z,2.60
2018-08-06T06:15:14.783Z,2.00
2018-08-06T06:17:44.298Z,2.70
2018-08-06T06:20:13.622Z,2.33
2018-08-06T06:22:42.467Z,1.97
2018-08-06T06:25:12.620Z,1.97
2018-08-06T06:27:42.141Z,1.70
2018-08-06T06:30:14.240Z,2.20
2018-08-06T06:32:43.237Z,1.13
2018-08-06T06:35:12.881Z,1.50
2018-08-06T06:37:41.762Z,1.60
2018-08-06T06:40:11.693Z,1.77
2018-08-06T06:42:40.593Z,1.60
2018-08-06T06:45:10.112Z,1.17
2018-08-06T06:47:38.992Z,1.43
2018-08-06T06:50:08.835Z,1.90
2018-08-06T06:52:37.783Z,1.50
2018-08-06T06:55:09.473Z,1.53
2018-08-06T06:57:38.851Z,1.53
2018-08-06T07:00:08.586Z,1.63
2018-08-06T07:02:37.498Z,1.83
2018-08-06T07:05:07.131Z,2.17
2018-08-06T07:07:36.328Z,1.80
2018-08-06T07:10:07.783Z,1.67
2018-08-06T07:12:36.790Z,1.30
2018-08-06T07:15:07.862Z,1.30
2018-08-06T07:17:36.965Z,1.20
2018-08-06T07:20:05.874Z,1.50
2018-08-06T07:22:34.729Z,0.97
2018-08-06T07:25:05.727Z,1.67
2018-08-06T07:27:34.557Z,1.10
2018-08-06T07:30:05.151Z,1.63
2018-08-06T07:32:33.987Z,1.20
2018-08-06T07:35:02.945Z,0.90
2018-08-06T07:37:31.809Z,1.40
2018-08-06T07:40:00.831Z,0.90
2018-08-06T07:42:29.677Z,1.50
2018-08-06T07:44:58.562Z,1.13
2018-08-06T07:47:27.577Z,1.17
2018-08-06T07:49:56.486Z,1.30
2018-08-06T07:52:25.322Z,1.30
2018-08-06T07:54:54.224Z,1.20
2018-08-06T07:57:23.035Z,1.23
2018-08-06T07:59:52.089Z,1.20
2018-08-06T08:02:21.187Z,1.03
2018-08-06T08:04:50.073Z,1.20
2018-08-06T08:07:18.994Z,1.27
2018-08-06T08:09:47.968Z,1.07
2018-08-06T08:12:16.973Z,0.90
2018-08-06T08:14:45.884Z,0.90
2018-08-06T08:17:15.089Z,1.10
2018-08-06T08:19:44.026Z,1.20
2018-08-06T08:22:13.595Z,0.83
2018-08-06T08:24:42.505Z,1.13
2018-08-06T08:27:11.381Z,1.30
2018-08-06T08:29:41.450Z,0.83
2018-08-06T08:32:10.192Z,0.90
2018-08-06T08:34:38.984Z,1.03
2018-08-06T08:37:07.840Z,1.10
2018-08-06T08:39:36.915Z,0.90
2018-08-06T08:42:05.968Z,0.87
2018-08-06T08:44:35.311Z,1.10
2018-08-06T08:47:05.649Z,1.27
2018-08-06T08:49:34.621Z,0.97
2018-08-06T08:52:03.485Z,0.90
2018-08-06T08:54:32.413Z,1.10
2018-08-06T08:57:01.339Z,1.00
2018-08-06T08:59:30.395Z,0.87
2018-08-06T09:01:59.329Z,0.90
2018-08-06T09:04:28.221Z,0.73
2018-08-06T09:06:57.074Z,0.57
2018-08-06T09:09:25.990Z,0.60
2018-08-06T09:11:55.519Z,0.70
2018-08-06T09:14:24.415Z,0.60
2018-08-06T09:16:53.304Z,0.90
2018-08-06T09:19:22.150Z,0.80
2018-08-06T09:21:51.076Z,0.87
2018-08-06T09:24:19.963Z,1.00
2018-08-06T09:26:48.880Z,0.60
2018-08-06T09:29:17.761Z,0.90
2018-08-06T09:31:46.379Z,0.73
2018-08-06T09:34:15.220Z,0.87
2018-08-06T09:36:44.148Z,1.10
2018-08-06T09:39:13.415Z,1.07
2018-08-06T09:41:42.314Z,0.97
2018-08-06T09:44:11.168Z,0.90
2018-08-06T09:46:39.840Z,0.90
2018-08-06T09:49:08.624Z,1.00
2018-08-06T09:51:37.524Z,0.87
2018-08-06T09:54:06.830Z,1.00
2018-08-06T09:56:36.559Z,0.80
2018-08-06T09:59:05.784Z,0.80
2018-08-06T10:01:39.980Z,1.10
2018-08-06T10:04:08.987Z,0.90
2018-08-06T10:06:38.168Z,0.90
2018-08-06T10:09:08.636Z,1.10
2018-08-06T10:11:38.299Z,0.90
2018-08-06T10:14:07.505Z,0.70
2018-08-06T10:16:36.935Z,1.00
2018-08-06T10:19:06.547Z,0.78
2018-08-06T10:21:36.046Z,1.13
2018-08-06T10:24:05.399Z,1.27
2018-08-06T10:26:34.320Z,0.80
2018-08-06T10:29:04.733Z,1.00
2018-08-06T10:31:33.638Z,1.47
2018-08-06T10:34:02.563Z,1.07
2018-08-06T10:36:31.545Z,1.10
2018-08-06T10:39:01.450Z,1.10
2018-08-06T10:41:30.410Z,1.40
2018-08-06T10:44:00.414Z,1.03
2018-08-06T10:46:29.252Z,1.00
2018-08-06T10:48:58.222Z,0.90
2018-08-06T10:51:27.312Z,1.00
2018-08-06T10:53:56.472Z,0.90
2018-08-06T10:56:26.129Z,0.80
2018-08-06T10:58:55.116Z,0.83
2018-08-06T11:01:24.201Z,0.95
2018-08-06T11:03:53.148Z,0.90
2018-08-06T11:06:22.026Z,1.20
2018-08-06T11:08:51.083Z,1.17
2018-08-06T11:11:20.069Z,1.00
2018-08-06T11:13:49.224Z,1.10
2018-08-06T11:16:18.108Z,1.23
2018-08-06T11:18:47.077Z,1.20
2018-08-06T11:21:16.591Z,1.00
2018-08-06T11:23:45.567Z,1.00
2018-08-06T11:26:14.721Z,1.40
2018-08-06T11:28:43.690Z,1.03
2018-08-06T11:31:12.867Z,1.20
2018-08-06T11:33:41.791Z,1.10
2018-08-06T11:36:10.665Z,1.00
2018-08-06T11:38:39.927Z,1.00
2018-08-06T11:41:08.965Z,1.10
2018-08-06T11:43:37.888Z,1.20
2018-08-06T11:46:06.797Z,1.10
2018-08-06T11:48:35.639Z,1.13
2018-08-06T11:51:04.818Z,1.22
2018-08-06T11:53:33.871Z,1.30
2018-08-06T11:56:02.785Z,1.00
2018-08-06T11:58:31.656Z,1.03
2018-08-06T12:01:00.613Z,1.20
2018-08-06T12:03:29.556Z,1.35
2018-08-06T12:05:58.404Z,1.20
2018-08-06T12:08:27.312Z,1.00
2018-08-06T12:10:56.227Z,1.15
2018-08-06T12:13:25.155Z,1.30
2018-08-06T12:15:54.086Z,1.20
2018-08-06T12:18:22.964Z,1.10
2018-08-06T12:20:51.687Z,1.10
2018-08-06T12:23:20.479Z,1.17
2018-08-06T12:25:49.371Z,1.00
2018-08-06T12:28:18.221Z,1.12
2018-08-06T12:30:47.050Z,1.10
2018-08-06T12:33:15.958Z,1.30
2018-08-06T12:35:44.802Z,1.22
2018-08-06T12:38:13.789Z,1.65
2018-08-06T12:40:42.597Z,1.10
2018-08-06T12:43:11.502Z,1.27
2018-08-06T12:45:40.482Z,1.20
2018-08-06T12:48:09.375Z,0.90
2018-08-06T12:50:38.376Z,1.15
2018-08-06T12:53:07.451Z,1.65
2018-08-06T12:55:36.518Z,1.45
2018-08-06T12:58:05.876Z,1.22
2018-08-06T13:00:35.120Z,0.82
2018-08-06T13:03:05.843Z,1.32
2018-08-06T13:05:34.826Z,1.27
2018-08-06T13:08:04.633Z,1.10
2018-08-06T13:10:33.517Z,1.10
2018-08-06T13:13:02.391Z,1.05
2018-08-06T13:15:31.460Z,1.15
2018-08-06T13:18:00.388Z,1.50
2018-08-06T13:20:29.290Z,1.10
2018-08-06T13:22:58.197Z,1.10
2018-08-06T13:25:27.298Z,1.20
2018-08-06T13:27:56.049Z,1.35
2018-08-06T13:30:26.454Z,1.20
2018-08-06T13:32:59.361Z,1.50
2018-08-06T13:35:28.287Z,1.20
2018-08-06T13:37:57.221Z,1.27
2018-08-06T13:40:26.224Z,1.40
2018-08-06T13:42:55.192Z,1.30
2018-08-06T13:45:24.421Z,1.10
2018-08-06T13:47:53.393Z,1.15
2018-08-06T13:50:22.332Z,1.40
2018-08-06T13:52:51.328Z,1.52
2018-08-06T13:55:20.250Z,1.33
2018-08-06T13:57:49.279Z,1.20
2018-08-06T14:00:18.947Z,1.22
2018-08-06T14:02:47.965Z,1.20
2018-08-06T14:05:18.018Z,1.23
2018-08-06T14:07:48.136Z,1.70
2018-08-06T14:10:17.717Z,1.27
2018-08-06T14:12:46.870Z,1.30
2018-08-06T14:15:15.975Z,1.37
2018-08-06T14:17:44.961Z,1.30
2018-08-06T14:20:15.642Z,1.40
2018-08-06T14:22:44.647Z,1.12
2018-08-06T14:25:13.679Z,1.27
2018-08-06T14:27:42.624Z,1.40
2018-08-06T14:30:13.593Z,1.25
2018-08-06T14:32:43.400Z,1.27
2018-08-06T14:35:12.752Z,1.30
2018-08-06T14:37:41.636Z,1.17
2018-08-06T14:40:11.740Z,1.20
2018-08-06T14:42:40.558Z,1.00
2018-08-06T14:45:11.573Z,1.35
2018-08-06T14:47:40.510Z,1.27
2018-08-06T14:50:10.980Z,1.20
2018-08-06T14:52:39.958Z,1.20
2018-08-06T14:55:09.068Z,1.22
2018-08-06T14:57:39.178Z,1.50
2018-08-06T15:00:15.093Z,1.37
2018-08-06T15:02:44.036Z,1.40
2018-08-06T15:05:13.117Z,1.20
2018-08-06T15:07:42.094Z,1.10
2018-08-06T15:10:12.330Z,1.20
2018-08-06T15:12:41.273Z,1.20
2018-08-06T15:15:12.721Z,1.37
2018-08-06T15:17:41.887Z,0.90
2018-08-06T15:20:12.881Z,1.30
2018-08-06T15:22:41.743Z,1.02
2018-08-06T15:25:17.227Z,1.40
2018-08-06T15:27:46.185Z,1.85
2018-08-06T15:30:15.192Z,0.90
2018-08-06T15:32:44.141Z,1.50
2018-08-06T15:35:13.683Z,1.30
2018-08-06T15:37:43.405Z,1.40
2018-08-06T15:40:15.049Z,1.40
2018-08-06T15:42:44.854Z,1.22
2018-08-06T15:45:14.500Z,1.22
2018-08-06T15:47:44.220Z,1.50
2018-08-06T15:50:16.474Z,1.12
2018-08-06T15:52:45.426Z,1.15
2018-08-06T15:55:14.329Z,1.10
2018-08-06T15:57:43.276Z,1.02
2018-08-06T16:00:15.914Z,1.32
2018-08-06T16:02:45.722Z,1.42
2018-08-06T16:05:14.873Z,1.05
2018-08-06T16:07:44.130Z,1.10
2018-08-06T16:10:13.669Z,0.90
2018-08-06T16:12:42.919Z,1.27
2018-08-06T16:15:12.869Z,1.20
2018-08-06T16:17:42.719Z,1.20
2018-08-06T16:20:13.475Z,1.32
2018-08-06T16:22:42.358Z,1.40
2018-08-06T16:25:11.961Z,1.45
2018-08-06T16:27:40.813Z,1.20
2018-08-06T16:30:13.845Z,1.20
2018-08-06T16:32:43.348Z,1.05
2018-08-06T16:35:12.245Z,1.22
2018-08-06T16:37:41.216Z,1.25
2018-08-06T16:40:12.397Z,1.20
2018-08-06T16:42:41.282Z,1.27
2018-08-06T16:45:10.483Z,1.37
2018-08-06T16:47:39.678Z,1.20
2018-08-06T16:50:11.632Z,1.27
2018-08-06T16:52:40.643Z,1.20
2018-08-06T16:55:10.442Z,0.93
2018-08-06T16:57:39.516Z,1.22
2018-08-06T17:00:12.084Z,1.50
2018-08-06T17:02:41.164Z,1.40
2018-08-06T17:05:11.467Z,1.15
2018-08-06T17:07:40.372Z,1.30
2018-08-06T17:10:13.833Z,1.20
2018-08-06T17:12:43.878Z,1.40
2018-08-06T17:15:14.225Z,1.00
2018-08-06T17:17:43.218Z,1.23
2018-08-06T17:20:14.886Z,1.13
2018-08-06T17:22:45.304Z,1.20
2018-08-06T17:25:14.524Z,1.30
2018-08-06T17:27:43.604Z,0.90
2018-08-06T17:30:13.205Z,1.20
2018-08-06T17:32:42.077Z,1.20
2018-08-06T17:35:12.075Z,1.07
2018-08-06T17:37:41.030Z,1.20
2018-08-06T17:40:14.611Z,1.20
2018-08-06T17:42:43.629Z,1.10
2018-08-06T17:45:16.283Z,1.27
2018-08-06T17:47:45.275Z,1.33
2018-08-06T17:50:15.862Z,1.30
2018-08-06T17:52:46.345Z,1.10
2018-08-06T17:55:16.243Z,1.30
2018-08-06T17:57:45.415Z,1.37
2018-08-06T18:00:14.665Z,1.60
2018-08-06T18:02:43.598Z,1.20
2018-08-06T18:05:15.124Z,1.27
2018-08-06T18:07:44.537Z,1.17
2018-08-06T18:10:15.139Z,1.27
2018-08-06T18:12:44.849Z,1.40
2018-08-06T18:15:14.291Z,1.10
2018-08-06T18:17:44.159Z,1.20
2018-08-06T18:20:18.747Z,1.60
2018-08-06T18:22:47.773Z,1.50
2018-08-06T18:25:18.047Z,1.23
2018-08-06T18:27:47.849Z,1.10
2018-08-06T18:30:19.122Z,1.40
2018-08-06T18:32:48.030Z,1.30
2018-08-06T18:35:17.819Z,1.20
2018-08-06T18:38:01.321Z,1.20
2018-08-06T18:40:30.292Z,1.40
2018-08-06T18:42:59.237Z,1.20
2018-08-06T18:45:28.138Z,1.37
2018-08-06T18:47:57.047Z,1.33
2018-08-06T18:50:25.977Z,1.50
2018-08-06T18:52:54.979Z,1.40
2018-08-06T18:55:23.941Z,1.57
2018-08-06T18:57:52.977Z,1.53
2018-08-06T19:00:23.987Z,1.10
2018-08-06T19:02:54.831Z,1.07
2018-08-06T19:05:23.718Z,1.13
2018-08-06T19:07:52.746Z,1.30
2018-08-06T19:10:21.595Z,1.30
2018-08-06T19:12:55.867Z,1.63
2018-08-06T19:15:24.657Z,1.20
2018-08-06T19:17:59.010Z,1.47
2018-08-06T19:20:27.994Z,1.40
2018-08-06T19:22:57.147Z,1.20
2018-08-06T19:25:26.759Z,1.37
2018-08-06T19:27:55.759Z,1.00
2018-08-06T19:31:29.932Z,1.13
2018-08-06T19:33:58.802Z,1.20
2018-08-06T19:36:31.911Z,1.37
2018-08-06T19:39:00.815Z,1.37
2018-08-06T19:41:29.480Z,1.60
2018-08-06T19:43:58.206Z,1.40
2018-08-06T19:46:27.139Z,1.60
2018-08-06T19:48:55.977Z,1.70
2018-08-06T19:51:24.905Z,1.50
2018-08-06T19:53:53.872Z,1.10
2018-08-06T19:56:23.064Z,1.87
2018-08-06T19:58:51.962Z,1.40
2018-08-06T20:01:21.016Z,1.60
2018-08-06T20:03:49.944Z,1.47
2018-08-06T20:19:00.477Z,1.67
2018-08-06T20:21:29.345Z,1.70
2018-08-06T20:23:58.370Z,1.77
2018-08-06T20:26:28.068Z,1.73
2018-08-06T20:28:56.916Z,1.90
2018-08-06T20:31:25.919Z,1.83
2018-08-06T20:33:54.810Z,2.43
2018-08-06T20:36:23.718Z,1.90
2018-08-06T20:38:52.599Z,1.87
2018-08-06T20:41:21.528Z,2.15
2018-08-06T20:43:50.447Z,2.03
2018-08-06T20:46:19.433Z,1.83
2018-08-06T20:48:48.327Z,2.30
2018-08-06T20:51:17.434Z,1.77
2018-08-06T20:53:46.546Z,2.10
2018-08-06T20:56:15.456Z,2.00
2018-08-06T20:58:44.354Z,2.30
2018-08-06T21:01:13.571Z,2.30
2018-08-06T21:03:42.737Z,1.90
2018-08-06T21:06:11.628Z,2.23
2018-08-06T21:08:41.125Z,2.10
2018-08-06T21:11:10.089Z,2.37
2018-08-06T21:13:38.980Z,2.47
2018-08-06T21:16:07.907Z,2.23
2018-08-06T21:18:36.797Z,2.40
2018-08-06T21:21:05.693Z,2.10
2018-08-06T21:23:34.789Z,2.27
2018-08-06T21:26:05.180Z,2.40
2018-08-06T21:28:34.139Z,2.27
2018-08-06T21:31:04.186Z,2.63
2018-08-06T21:33:34.769Z,3.00
2018-08-06T21:36:05.633Z,2.03
2018-08-06T21:38:37.158Z,2.13
2018-08-06T21:41:06.193Z,2.30
2018-08-06T21:43:35.014Z,2.10
2018-08-06T21:46:04.732Z,2.27
2018-08-06T21:48:33.690Z,2.00
2018-08-06T21:51:02.585Z,1.87
2018-08-06T21:53:31.539Z,2.10
2018-08-06T21:56:00.538Z,1.70
2018-08-06T21:58:29.444Z,2.40
2018-08-06T22:00:58.506Z,2.07
2018-08-06T22:03:27.361Z,2.33
2018-08-06T22:05:56.240Z,2.33
2018-08-06T22:08:25.280Z,1.90
2018-08-06T22:10:54.154Z,1.90
2018-08-06T22:13:23.159Z,2.00
2018-08-06T22:15:52.104Z,2.67
2018-08-06T22:18:20.985Z,2.13
2018-08-06T22:20:49.880Z,1.93
2018-08-06T22:23:18.761Z,1.90
2018-08-06T22:25:47.642Z,2.17
2018-08-06T22:28:16.604Z,2.03
2018-08-06T22:30:45.541Z,2.20
2018-08-06T22:33:14.444Z,2.83
2018-08-06T22:35:43.400Z,2.20
2018-08-06T22:38:12.359Z,2.30
2018-08-06T22:40:41.303Z,2.33
2018-08-06T22:43:10.194Z,2.10
2018-08-06T22:45:39.053Z,2.30
2018-08-06T22:48:07.896Z,1.80
2018-08-06T22:50:36.801Z,2.20
2018-08-06T22:53:05.675Z,2.37
2018-08-06T22:55:45.941Z,2.23
2018-08-06T22:58:14.809Z,2.70
2018-08-06T23:00:44.034Z,1.90
2018-08-06T23:03:13.880Z,2.30
2018-08-06T23:05:42.840Z,2.80
2018-08-06T23:08:11.797Z,2.20
2018-08-06T23:10:40.743Z,2.03
2018-08-06T23:13:09.710Z,2.50
2018-08-06T23:15:38.666Z,2.43
2018-08-06T23:18:07.582Z,2.27
2018-08-06T23:20:36.506Z,1.90
2018-08-06T23:23:05.430Z,1.73
2018-08-06T23:25:34.272Z,2.17
2018-08-06T23:28:03.201Z,2.40
2018-08-06T23:30:32.637Z,1.90
2018-08-06T23:33:01.556Z,2.10
2018-08-06T23:35:30.943Z,2.33
2018-08-06T23:38:00.037Z,2.10
2018-08-06T23:40:29.296Z,2.13
2018-08-06T23:42:58.624Z,2.20
2018-08-06T23:45:27.825Z,2.10
2018-08-06T23:47:57.043Z,2.00
2018-08-06T23:50:26.005Z,2.00
2018-08-06T23:52:55.521Z,2.20
2018-08-06T23:55:24.472Z,2.27
2018-08-06T23:57:53.415Z,2.33
